SCFASCCF

Guest
Details From SCFA - CERRO MORENO INTL
To SCCF - EL LOA
Flight Number -
Tags generated
Created
Modified
Stats Distance 103 nm / 191 km
Max Altitude 0 ft / 0 m
Waypoints 3
Social Downloads 1
Likes 0
Share VATSIM

Download

Looking for another format? Having issues loading an existing format? Contact us
Advertisement - Login to hide

Notes

Basic altitude profile: - Ascent Rate: 2500ft/min - Ascent Speed: 250kts - Cruise Altitude: 20000ft - Cruise Speed: 420kts - Descent Rate: 1500ft/min - Descent Speed: 250kts Options: - Use NATs: yes - Use PACOTS: yes - Use low airways: yes - Use high airways: yes

Route

SCFA CFL SCCF

ID Type Via Altitude Latitude Longitude Leg Dist Tot Dist Heading (true) Name
O SCFA APT - 0 ft / 0 m -23.44448˚ -70.44510˚ - 0 nm - CERRO MORENO INTL
CFL NDB - 0 ft / 0 m -22.49361˚ -68.90306˚ 102 nm 102 nm 56° / 56° CALAMA NDB
O SCCF APT - 0 ft / 0 m -22.49818˚ -68.90358˚ 0 nm 102 nm 186° / 186° EL LOA

Altitude Profile

Advertisement - Login to hide

SCFA

Details ICAO SCFA (ANF)
Name CERRO MORENO INTL
Region Chile
Timezone America/Santiago (UTC-4.0)
Stats Elevation 455 ft / 139 m (AMSL)
Location -23.444477° -70.445100°
Runways 1
Magnetic Variation 3.570° W

METAR

SCFA 212100Z 20009KT 9999 FEW026 14/09 Q1013 NOSIG

Decode

TAF

TAF AMD SCFA 211901Z 2119/2218 21007KT 9999 FEW020 TX15/2119Z TN12/2206Z BECMG 2120/2122 BKN018 BECMG 2202/2204 17004KT OVC015 BECMG 2208/2210 02004KT BECMG 2216/21218 21009KT BKN020

Decode

Departure Runways

ID Width Length Bearing (true) Bearing (mag) Surface Threshold Offset Overrun Length
01 164 ft / 50 m 8,567 ft / 2,611 m 6.86° 10.43° Asphalt 0 ft / 0 m 50 ft / 15 m
19 164 ft / 50 m 8,567 ft / 2,611 m 186.86° 190.43° Asphalt 0 ft / 0 m 155 ft / 47 m

SCCF

Details ICAO SCCF (CJC)
Name EL LOA
Region Chile
Timezone America/Santiago (UTC-4.0)
Stats Elevation 7,543 ft / 2,299 m (AMSL)
Location -22.498175° -68.903575°
Runways 1
Magnetic Variation 5.363° W

METAR

SCCF 212100Z 28019KT CAVOK 22/12 Q1023

Decode

TAF

TAF SCCF 211630Z 2118/2218 27014KT CAVOK TX22/2118Z TN05/2206Z BECMG 2122/2200 27004KT BECMG 2204/2206 10010KT BECMG 2208/2210 10021KT BECMG 2214/2216 10008KT

Decode

Destination Runways

ID Width Length Bearing (true) Bearing (mag) Surface Threshold Offset Overrun Length
10 98 ft / 30 m 9,455 ft / 2,882 m 93.61° 98.97° Asphalt 0 ft / 0 m 100 ft / 30 m
28 98 ft / 30 m 9,455 ft / 2,882 m 273.60° 278.96° Asphalt 0 ft / 0 m 100 ft / 30 m

Popular Alternatives